M I D A S
Marine Information and Data Acquisition System
Tripno 1077 of the Zeeleeuw from 2006-04-27 07:06:49 to 2006-04-27 13:13:56
Back to CruiseResearch ActivitiesStationsMapUnderway DataData graphs

EquipmentUnitsComments
TimeDGPSUTC
LatitudeDGPSDM.mWGS84
LongitudeDGPSDM.mWGS84
SpeedMeteo Stationm/sRelative wind speed
DirectionMeteo StationdegRelative wind direction
TemperatureMeteo Stationdeg CelciusAir temperature
PressureMeteo StationPaAtmospheric pressure
HumidityMeteo Station%Relative humidity
Missing or incorrect values are displayed as -999
Metereological data collected by the RV Zeeleeuw from 2006-04-27 06:12:50 to 2006-04-27 13:24:31
Time Latitude Longitude Speed Direction Temperature Pressure Humidity
2006-04-27 06:13 51°13.602 2°56.097 -999 253 10.6 102320 73
2006-04-27 06:14 51°13.602 2°56.099 -999 269 10.7 102320 73
2006-04-27 06:15 51°13.6 2°56.099 -999 289 10.7 102320 72
2006-04-27 06:16 51°13.601 2°56.099 -999 291 10.8 102320 72
2006-04-27 06:17 51°13.601 2°56.099 -999 261 10.9 102320 71
2006-04-27 06:18 51°13.601 2°56.1 -999 239 10.9 102320 71
2006-04-27 06:19 51°13.602 2°56.1 -999 253 10.9 102320 71
2006-04-27 06:20 51°13.602 2°56.1 -999 265 10.8 102330 71
2006-04-27 06:21 51°13.602 2°56.1 -999 259 10.8 102330 71
2006-04-27 06:22 51°13.602 2°56.1 -999 252 10.8 102320 71
2006-04-27 06:23 51°13.602 2°56.1 -999 245 10.7 102330 72
2006-04-27 06:24 51°13.602 2°56.1 -999 249 10.7 102330 72
2006-04-27 06:25 51°13.601 2°56.099 -999 246 10.7 102330 72
2006-04-27 06:26 51°13.601 2°56.099 -999 248 10.7 102330 72
2006-04-27 06:27 51°13.602 2°56.1 -999 247 10.7 102330 71
2006-04-27 06:28 51°13.602 2°56.1 -999 260 10.7 102330 71
2006-04-27 06:29 51°13.602 2°56.099 -999 264 10.7 102330 71
2006-04-27 06:30 51°13.602 2°56.099 -999 244 10.7 102340 71
2006-04-27 06:31 51°13.601 2°56.1 -999 242 10.7 102340 71
2006-04-27 06:32 51°13.601 2°56.1 -999 266 10.7 102340 71
2006-04-27 06:33 51°13.602 2°56.1 -999 251 10.7 102330 72
2006-04-27 06:34 51°13.601 2°56.1 -999 265 10.7 102340 71
2006-04-27 06:35 51°13.601 2°56.099 -999 256 10.8 102330 71
2006-04-27 06:36 51°13.601 2°56.099 -999 252 10.8 102340 70
2006-04-27 06:37 51°13.601 2°56.099 -999 253 10.8 102330 70
2006-04-27 06:38 51°13.601 2°56.099 -999 276 10.9 102340 69
2006-04-27 06:39 51°13.601 2°56.098 -999 268 10.9 102340 69
2006-04-27 06:40 51°13.602 2°56.098 -999 224 11 102340 69
2006-04-27 06:41 51°13.601 2°56.099 -999 233 11 102340 69
2006-04-27 06:42 51°13.602 2°56.099 -999 253 11 102340 69
2006-04-27 06:43 51°13.602 2°56.099 -999 298 11 102340 69
2006-04-27 06:44 51°13.602 2°56.099 -999 277 11 102340 69
2006-04-27 06:45 51°13.602 2°56.1 -999 280 11.1 102340 69
2006-04-27 06:46 51°13.602 2°56.099 -999 246 11.1 102340 69
2006-04-27 06:47 51°13.602 2°56.099 -999 256 11.2 102350 69
2006-04-27 06:48 51°13.601 2°56.099 -999 276 11.2 102340 68
2006-04-27 06:49 51°13.601 2°56.1 -999 251 11.2 102340 68
2006-04-27 06:50 51°13.607 2°56.074 -999 240 11.2 102340 68
2006-04-27 06:51 51°13.629 2°55.985 -999 226 11.1 102340 68
2006-04-27 06:52 51°13.659 2°55.878 -999 227 11 102340 69
2006-04-27 06:53 51°13.706 2°55.781 -999 215 10.8 102340 70
2006-04-27 06:54 51°13.733 2°55.713 -999 276 10.7 102340 71
2006-04-27 06:55 51°13.731 2°55.716 -999 264 10.7 102340 73
2006-04-27 06:56 51°13.731 2°55.711 -999 6 10.8 102340 73
2006-04-27 06:57 51°13.783 2°55.681 -999 34 10.7 102340 71
2006-04-27 06:58 51°13.889 2°55.594 -999 25 10.6 102340 73
2006-04-27 06:59 51°14.01 2°55.509 -999 22 10.5 102340 74
2006-04-27 07:00 51°14.132 2°55.417 -999 27 10.4 102340 74
2006-04-27 07:01 51°14.247 2°55.288 -999 19 10.4 102340 75
2006-04-27 07:02 51°14.339 2°55.108 -999 19 10.3 102340 76
2006-04-27 07:03 51°14.451 2°54.936 -999 26 10.2 102330 76
2006-04-27 07:04 51°14.612 2°54.763 -999 25 10.2 102330 76
2006-04-27 07:05 51°14.793 2°54.613 -999 25 10.2 102330 76
2006-04-27 07:06 51°14.973 2°54.471 -999 24 10.3 102330 75
2006-04-27 07:07 51°15.132 2°54.263 -999 27 10.3 102330 75
2006-04-27 07:08 51°15.311 2°54.108 -999 20 10.4 102340 75
2006-04-27 07:09 51°15.484 2°53.919 -999 22 10.4 102330 75
2006-04-27 07:10 51°15.659 2°53.73 -999 23 10.3 102330 74
2006-04-27 07:11 51°15.83 2°53.542 -999 26 10.4 102330 73
2006-04-27 07:12 51°15.996 2°53.328 -999 24 10.4 102330 73
2006-04-27 07:13 51°16.176 2°53.138 -999 22 10.4 102340 74
2006-04-27 07:14 51°16.36 2°52.966 -999 22 10.4 102340 74
2006-04-27 07:15 51°16.548 2°52.815 -999 26 10.4 102340 74
2006-04-27 07:16 51°16.726 2°52.66 -999 24 10.4 102340 73
2006-04-27 07:17 51°16.908 2°52.514 -999 20 10.4 102340 73
2006-04-27 07:18 51°17.098 2°52.428 -999 17 10.4 102340 74
2006-04-27 07:19 51°17.286 2°52.321 -999 16 10.4 102340 73
2006-04-27 07:20 51°17.468 2°52.194 -999 22 10.4 102340 73
2006-04-27 07:21 51°17.629 2°51.978 -999 26 10.4 102340 73
2006-04-27 07:22 51°17.751 2°51.699 -999 28 10.4 102350 73
2006-04-27 07:23 51°17.83 2°51.368 -999 24 10.4 102350 74
2006-04-27 07:24 51°17.926 2°51.041 -999 24 10.3 102350 74
2006-04-27 07:25 51°18.017 2°50.705 -999 20 10.3 102350 75
2006-04-27 07:26 51°18.11 2°50.371 -999 24 10.3 102350 75
2006-04-27 07:27 51°18.199 2°50.033 -999 20 10.3 102350 75
2006-04-27 07:28 51°18.285 2°49.695 -999 19 10.3 102350 75
2006-04-27 07:29 51°18.377 2°49.35 -999 18 10.3 102350 75
2006-04-27 07:30 51°18.473 2°49.022 -999 19 10.3 102350 75
2006-04-27 07:31 51°18.572 2°48.692 -999 18 10.3 102350 76
2006-04-27 07:32 51°18.662 2°48.353 -999 18 10.3 102340 76
2006-04-27 07:33 51°18.756 2°48.012 -999 15 10.3 102350 76
2006-04-27 07:34 51°18.85 2°47.667 -999 14 10.2 102350 77
2006-04-27 07:35 51°18.941 2°47.323 -999 15 10.2 102340 77
2006-04-27 07:36 51°19.037 2°46.967 -999 15 10.2 102350 77
2006-04-27 07:37 51°19.131 2°46.615 -999 14 10.1 102350 78
2006-04-27 07:38 51°19.224 2°46.26 -999 16 10.2 102340 78
2006-04-27 07:39 51°19.317 2°45.906 -999 14 10.2 102350 78
2006-04-27 07:40 51°19.413 2°45.555 -999 15 10.2 102350 78
2006-04-27 07:41 51°19.51 2°45.217 -999 13 10.2 102340 79
2006-04-27 07:42 51°19.604 2°44.857 -999 13 10.1 102350 79
2006-04-27 07:43 51°19.692 2°44.506 -999 12 10.1 102350 79
2006-04-27 07:44 51°19.779 2°44.161 -999 15 10.1 102350 79
2006-04-27 07:45 51°19.872 2°43.786 -999 15 10.1 102350 79
2006-04-27 07:46 51°19.964 2°43.43 -999 16 10.1 102350 79
2006-04-27 07:47 51°20.055 2°43.072 -999 13 10.1 102350 79
2006-04-27 07:48 51°20.148 2°42.713 -999 13 10 102350 79
2006-04-27 07:49 51°20.239 2°42.354 -999 13 10 102360 80
2006-04-27 07:50 51°20.328 2°41.993 -999 14 10 102350 81
2006-04-27 07:51 51°20.412 2°41.635 -999 14 10 102350 80
2006-04-27 07:52 51°20.497 2°41.297 -999 15 10 102350 81
2006-04-27 07:53 51°20.559 2°40.928 -999 12 10 102350 80
2006-04-27 07:54 51°20.598 2°40.553 -999 10 10 102350 80
2006-04-27 07:55 51°20.631 2°40.178 -999 8 9.9 102350 80
2006-04-27 07:56 51°20.651 2°39.799 -999 8 9.9 102360 81
2006-04-27 07:57 51°20.678 2°39.42 -999 10 9.9 102360 81
2006-04-27 07:58 51°20.705 2°39.039 -999 10 9.8 102360 82
2006-04-27 07:59 51°20.73 2°38.655 -999 9 9.8 102360 82
2006-04-27 08:00 51°20.756 2°38.271 -999 7 9.8 102360 82
2006-04-27 08:01 51°20.785 2°37.898 -999 10 9.8 102360 83
2006-04-27 08:02 51°20.815 2°37.512 -999 10 9.8 102360 83
2006-04-27 08:03 51°20.846 2°37.131 -999 11 9.8 102360 83
2006-04-27 08:04 51°20.876 2°36.756 -999 11 9.8 102360 83
2006-04-27 08:05 51°20.906 2°36.367 -999 10 9.8 102360 83
2006-04-27 08:06 51°20.949 2°35.988 -999 8 9.8 102360 83
2006-04-27 08:07 51°21.018 2°35.623 -999 9 9.8 102360 84
2006-04-27 08:08 51°21.088 2°35.264 -999 11 9.8 102360 84
2006-04-27 08:09 51°21.185 2°34.914 -999 6 9.8 102360 83
2006-04-27 08:10 51°21.288 2°34.569 -999 7 9.8 102350 82
2006-04-27 08:11 51°21.393 2°34.22 -999 8 9.8 102350 82
2006-04-27 08:12 51°21.496 2°33.893 -999 8 9.8 102360 82
2006-04-27 08:13 51°21.624 2°33.587 -999 9 9.8 102360 81
2006-04-27 08:14 51°21.748 2°33.299 -999 11 9.8 102370 81
2006-04-27 08:15 51°21.872 2°32.996 -999 12 9.8 102370 81
2006-04-27 08:16 51°21.991 2°32.698 -999 10 9.9 102370 80
2006-04-27 08:17 51°22.118 2°32.386 -999 8 9.9 102370 81
2006-04-27 08:18 51°22.284 2°32.166 -999 7 9.8 102370 78
2006-04-27 08:19 51°22.456 2°31.947 -999 6 9.8 102370 77
2006-04-27 08:20 51°22.563 2°31.617 -999 12 9.8 102370 78
2006-04-27 08:21 51°22.6 2°31.236 -999 15 9.8 102380 79
2006-04-27 08:22 51°22.631 2°30.858 -999 18 9.9 102370 80
2006-04-27 08:23 51°22.657 2°30.47 -999 15 9.9 102380 80
2006-04-27 08:24 51°22.68 2°30.084 -999 16 9.9 102380 81
2006-04-27 08:25 51°22.698 2°29.694 -999 17 9.9 102370 81
2006-04-27 08:26 51°22.706 2°29.312 -999 21 9.9 102380 79
2006-04-27 08:27 51°22.668 2°28.924 -999 19 9.9 102380 78
2006-04-27 08:28 51°22.642 2°28.539 -999 20 10 102380 79
2006-04-27 08:29 51°22.617 2°28.139 -999 20 10 102380 79
2006-04-27 08:30 51°22.591 2°27.744 -999 18 9.9 102380 78
2006-04-27 08:31 51°22.571 2°27.348 -999 16 9.9 102380 76
2006-04-27 08:32 51°22.554 2°26.953 -999 16 9.9 102380 77
2006-04-27 08:33 51°22.545 2°26.556 -999 17 10 102380 78
2006-04-27 08:34 51°22.599 2°26.187 -999 14 9.9 102380 78
2006-04-27 08:35 51°22.738 2°25.919 -999 8 9.9 102380 78
2006-04-27 08:36 51°22.916 2°25.725 -999 7 9.9 102370 77
2006-04-27 08:37 51°23.109 2°25.584 -999 6 9.8 102370 78
2006-04-27 08:38 51°23.303 2°25.474 -999 4 9.8 102370 77
2006-04-27 08:39 51°23.51 2°25.449 -999 4 9.8 102370 77
2006-04-27 08:40 51°23.714 2°25.452 -999 4 9.8 102380 77
2006-04-27 08:41 51°23.913 2°25.45 -999 2 9.8 102380 78
2006-04-27 08:42 51°24.117 2°25.446 -999 2 9.8 102380 79
2006-04-27 08:43 51°24.315 2°25.439 -999 2 9.8 102380 79
2006-04-27 08:44 51°24.511 2°25.429 -999 -999 9.7 102370 77
2006-04-27 08:45 51°24.706 2°25.419 -999 2 9.8 102370 76
2006-04-27 08:46 51°24.902 2°25.414 -999 1 9.8 102370 75
2006-04-27 08:47 51°25.097 2°25.415 -999 360 9.8 102370 74
2006-04-27 08:48 51°25.293 2°25.418 -999 -999 9.8 102370 73
2006-04-27 08:49 51°25.489 2°25.418 -999 1 9.9 102370 73
2006-04-27 08:50 51°25.684 2°25.422 -999 2 9.9 102370 73
2006-04-27 08:51 51°25.886 2°25.424 -999 3 9.9 102370 74
2006-04-27 08:52 51°26.084 2°25.43 -999 6 9.8 102370 74
2006-04-27 08:53 51°26.281 2°25.463 -999 8 9.8 102370 74
2006-04-27 08:54 51°26.475 2°25.497 -999 5 9.8 102370 75
2006-04-27 08:55 51°26.674 2°25.533 -999 5 9.7 102370 76
2006-04-27 08:56 51°26.872 2°25.564 -999 3 9.7 102370 77
2006-04-27 08:57 51°27.069 2°25.604 -999 3 9.7 102370 77
2006-04-27 08:58 51°27.266 2°25.641 -999 2 9.7 102370 78
2006-04-27 08:59 51°27.464 2°25.674 -999 3 9.7 102370 77
2006-04-27 09:00 51°27.659 2°25.7 -999 2 9.7 102380 77
2006-04-27 09:01 51°27.859 2°25.731 -999 4 9.7 102370 77
2006-04-27 09:02 51°28.058 2°25.764 -999 3 9.7 102370 77
2006-04-27 09:03 51°28.257 2°25.798 -999 6 9.7 102370 76
2006-04-27 09:04 51°28.457 2°25.833 -999 7 9.7 102370 76
2006-04-27 09:05 51°28.656 2°25.869 -999 8 9.7 102380 76
2006-04-27 09:06 51°28.858 2°25.866 -999 9 9.7 102380 77
2006-04-27 09:07 51°29.055 2°25.865 -999 6 9.7 102380 77
2006-04-27 09:08 51°29.259 2°25.866 -999 10 9.6 102390 77
2006-04-27 09:09 51°29.458 2°25.866 -999 9 9.7 102380 78
2006-04-27 09:10 51°29.658 2°25.882 -999 3 9.6 102380 78
2006-04-27 09:11 51°29.857 2°25.913 -999 360 9.6 102380 79
2006-04-27 09:12 51°30.056 2°25.94 -999 357 9.7 102380 79
2006-04-27 09:13 51°30.248 2°26.01 -999 354 9.6 102380 79
2006-04-27 09:14 51°30.429 2°26.121 -999 355 9.7 102380 80
2006-04-27 09:15 51°30.615 2°26.234 -999 354 9.7 102380 80
2006-04-27 09:16 51°30.796 2°26.337 -999 353 9.7 102380 80
2006-04-27 09:17 51°30.977 2°26.443 -999 354 9.7 102390 80
2006-04-27 09:18 51°31.159 2°26.55 -999 353 9.7 102380 80
2006-04-27 09:19 51°31.344 2°26.657 -999 353 9.8 102380 80
2006-04-27 09:20 51°31.528 2°26.768 -999 353 9.7 102380 80
2006-04-27 09:21 51°31.712 2°26.878 -999 353 9.7 102380 81
2006-04-27 09:22 51°31.896 2°26.993 -999 353 9.7 102380 81
2006-04-27 09:23 51°32.076 2°27.123 -999 354 9.7 102380 81
2006-04-27 09:24 51°32.258 2°27.255 -999 355 9.7 102380 81
2006-04-27 09:25 51°32.436 2°27.385 -999 356 9.7 102380 81
2006-04-27 09:26 51°32.621 2°27.518 -999 358 9.6 102380 82
2006-04-27 09:27 51°32.802 2°27.651 -999 358 9.6 102380 82
2006-04-27 09:28 51°32.981 2°27.78 -999 358 9.6 102380 82
2006-04-27 09:29 51°33.165 2°27.918 -999 357 9.5 102380 83
2006-04-27 09:30 51°33.346 2°28.05 -999 358 9.5 102380 83
2006-04-27 09:31 51°33.53 2°28.197 -999 359 9.5 102370 83
2006-04-27 09:32 51°33.71 2°28.341 -999 356 9.5 102370 84
2006-04-27 09:33 51°33.889 2°28.484 -999 355 9.5 102370 84
2006-04-27 09:34 51°34.064 2°28.62 -999 355 9.5 102380 84
2006-04-27 09:35 51°34.249 2°28.767 -999 355 9.5 102370 84
2006-04-27 09:36 51°34.429 2°28.909 -999 357 9.5 102380 84
2006-04-27 09:37 51°34.607 2°29.049 -999 354 9.5 102380 84
2006-04-27 09:38 51°34.791 2°29.193 -999 356 9.5 102380 84
2006-04-27 09:39 51°34.971 2°29.334 -999 354 9.5 102380 84
2006-04-27 09:40 51°35.143 2°29.493 -999 348 9.6 102380 84
2006-04-27 09:41 51°35.318 2°29.658 -999 348 9.6 102380 84
2006-04-27 09:42 51°35.491 2°29.82 -999 348 9.6 102380 84
2006-04-27 09:43 51°35.663 2°29.982 -999 349 9.6 102380 84
2006-04-27 09:44 51°35.836 2°30.147 -999 348 9.6 102380 84
2006-04-27 09:45 51°36.006 2°30.306 -999 351 9.6 102380 85
2006-04-27 09:46 51°36.182 2°30.472 -999 352 9.5 102370 85
2006-04-27 09:47 51°36.356 2°30.634 -999 352 9.4 102370 85
2006-04-27 09:48 51°36.527 2°30.801 -999 347 9.4 102380 86
2006-04-27 09:49 51°36.699 2°30.961 -999 350 9.4 102380 86
2006-04-27 09:50 51°36.875 2°31.133 -999 356 9.4 102380 86
2006-04-27 09:51 51°37.049 2°31.297 -999 351 9.4 102370 86
2006-04-27 09:52 51°37.223 2°31.459 -999 349 9.4 102380 87
2006-04-27 09:53 51°37.395 2°31.622 -999 352 9.4 102370 87
2006-04-27 09:54 51°37.573 2°31.788 -999 352 9.4 102370 87
2006-04-27 09:55 51°37.746 2°31.956 -999 349 9.4 102370 87
2006-04-27 09:56 51°37.923 2°32.121 -999 353 9.4 102370 87
2006-04-27 09:57 51°38.099 2°32.288 -999 353 9.4 102370 87
2006-04-27 09:58 51°38.275 2°32.454 -999 352 9.4 102370 87
2006-04-27 09:59 51°38.448 2°32.622 -999 357 9.4 102370 87
2006-04-27 10:00 51°38.628 2°32.794 -999 357 9.4 102370 87
2006-04-27 10:01 51°38.804 2°32.957 -999 354 9.4 102370 87
2006-04-27 10:02 51°38.984 2°33.128 -999 355 9.4 102370 88
2006-04-27 10:03 51°39.159 2°33.292 -999 354 9.3 102370 88
2006-04-27 10:04 51°39.338 2°33.458 -999 354 9.3 102370 88
2006-04-27 10:05 51°39.517 2°33.624 -999 356 9.3 102360 88
2006-04-27 10:06 51°39.697 2°33.79 -999 354 9.3 102370 88
2006-04-27 10:07 51°39.882 2°33.957 -999 355 9.3 102360 88
2006-04-27 10:08 51°40.058 2°34.123 -999 354 9.2 102360 89
2006-04-27 10:09 51°40.24 2°34.29 -999 356 9.2 102360 89
2006-04-27 10:10 51°40.424 2°34.465 -999 352 9.2 102360 89
2006-04-27 10:11 51°40.548 2°34.737 -999 345 9.2 102360 89
2006-04-27 10:12 51°40.631 2°35.053 -999 335 9.2 102370 90
2006-04-27 10:13 51°40.648 2°35.398 -999 334 9.1 102370 90
2006-04-27 10:14 51°40.641 2°35.761 -999 331 9.1 102370 90
2006-04-27 10:15 51°40.609 2°36.117 -999 331 9 102380 90
2006-04-27 10:16 51°40.574 2°36.471 -999 331 9 102370 91
2006-04-27 10:17 51°40.51 2°36.824 -999 334 9 102380 91
2006-04-27 10:18 51°40.426 2°37.155 -999 332 9 102380 91
2006-04-27 10:19 51°40.342 2°37.493 -999 332 8.9 102380 91
2006-04-27 10:20 51°40.26 2°37.831 -999 328 8.9 102380 92
2006-04-27 10:21 51°40.176 2°38.173 -999 332 8.9 102380 92
2006-04-27 10:22 51°40.098 2°38.505 -999 336 8.9 102370 92
2006-04-27 10:23 51°40.016 2°38.849 -999 333 8.9 102380 92
2006-04-27 10:24 51°39.937 2°39.191 -999 334 8.9 102370 92
2006-04-27 10:25 51°39.849 2°39.525 -999 328 9 102380 92
2006-04-27 10:26 51°39.762 2°39.863 -999 327 8.9 102370 92
2006-04-27 10:27 51°39.678 2°40.201 -999 328 8.9 102380 92
2006-04-27 10:28 51°39.589 2°40.538 -999 326 9 102370 92
2006-04-27 10:29 51°39.415 2°40.756 -999 338 8.9 102380 92
2006-04-27 10:30 51°39.194 2°40.788 -999 358 9 102390 92
2006-04-27 10:31 51°38.972 2°40.773 -999 17 9 102390 92
2006-04-27 10:32 51°38.752 2°40.711 -999 11 9.1 102390 92
2006-04-27 10:33 51°38.535 2°40.659 -999 14 9.1 102390 92
2006-04-27 10:34 51°38.313 2°40.6 -999 21 9.1 102390 92
2006-04-27 10:35 51°38.101 2°40.512 -999 25 9.1 102390 92
2006-04-27 10:36 51°37.894 2°40.395 -999 34 9.1 102380 92
2006-04-27 10:37 51°37.712 2°40.214 -999 48 9 102380 92
2006-04-27 10:38 51°37.657 2°39.906 -999 44 9 102370 92
2006-04-27 10:39 51°37.649 2°39.568 -999 47 8.9 102370 92
2006-04-27 10:40 51°37.636 2°39.223 -999 43 8.9 102370 92
2006-04-27 10:41 51°37.62 2°38.883 -999 41 8.9 102370 92
2006-04-27 10:42 51°37.602 2°38.549 -999 42 8.9 102370 92
2006-04-27 10:43 51°37.581 2°38.21 -999 41 8.8 102370 93
2006-04-27 10:44 51°37.578 2°37.868 -999 39 8.8 102370 93
2006-04-27 10:45 51°37.586 2°37.535 -999 39 8.8 102370 93
2006-04-27 10:46 51°37.583 2°37.196 -999 41 8.8 102380 93
2006-04-27 10:47 51°37.569 2°36.849 -999 37 8.8 102380 93
2006-04-27 10:48 51°37.535 2°36.515 -999 41 8.8 102380 93
2006-04-27 10:49 51°37.495 2°36.189 -999 36 8.8 102380 94
2006-04-27 10:50 51°37.457 2°35.857 -999 39 8.7 102380 94
2006-04-27 10:51 51°37.421 2°35.525 -999 37 8.7 102380 94
2006-04-27 10:52 51°37.387 2°35.193 -999 37 8.8 102380 94
2006-04-27 10:53 51°37.337 2°34.877 -999 38 8.8 102380 94
2006-04-27 10:54 51°37.271 2°34.575 -999 36 8.7 102380 94
2006-04-27 10:55 51°37.195 2°34.285 -999 35 8.7 102380 94
2006-04-27 10:56 51°37.112 2°34.004 -999 30 8.8 102380 94
2006-04-27 10:57 51°36.942 2°33.845 -999 359 8.8 102380 95
2006-04-27 10:58 51°36.743 2°33.746 -999 3 8.9 102380 95
2006-04-27 10:59 51°36.544 2°33.645 -999 359 8.9 102380 95
2006-04-27 11:00 51°36.348 2°33.546 -999 5 9 102380 94
2006-04-27 11:01 51°36.147 2°33.442 -999 8 9 102380 94
2006-04-27 11:02 51°35.948 2°33.34 -999 13 9 102380 94
2006-04-27 11:03 51°35.75 2°33.235 -999 14 9 102390 94
2006-04-27 11:04 51°35.553 2°33.129 -999 14 9.1 102380 94
2006-04-27 11:05 51°35.359 2°33.022 -999 14 9.1 102380 94
2006-04-27 11:06 51°35.159 2°32.915 -999 16 9.1 102380 94
2006-04-27 11:07 51°34.961 2°32.811 -999 14 9.1 102380 93
2006-04-27 11:08 51°34.768 2°32.71 -999 9 9.1 102380 93
2006-04-27 11:09 51°34.565 2°32.635 -999 8 9.2 102380 93
2006-04-27 11:10 51°34.358 2°32.581 -999 3 9.2 102380 93
2006-04-27 11:11 51°34.146 2°32.547 -999 1 9.2 102380 93
2006-04-27 11:12 51°33.934 2°32.535 -999 3 9.2 102380 93
2006-04-27 11:13 51°33.724 2°32.516 -999 2 9.2 102380 93
2006-04-27 11:14 51°33.514 2°32.496 -999 1 9.2 102380 93
2006-04-27 11:15 51°33.307 2°32.48 -999 7 9.3 102380 92
2006-04-27 11:16 51°33.096 2°32.463 -999 5 9.3 102380 92
2006-04-27 11:17 51°32.889 2°32.441 -999 7 9.3 102380 92
2006-04-27 11:18 51°32.682 2°32.419 -999 6 9.3 102380 92
2006-04-27 11:19 51°32.475 2°32.393 -999 7 9.3 102380 92
2006-04-27 11:20 51°32.269 2°32.387 -999 6 9.3 102380 92
2006-04-27 11:21 51°32.067 2°32.382 -999 8 9.3 102380 92
2006-04-27 11:22 51°31.86 2°32.368 -999 13 9.3 102380 92
2006-04-27 11:23 51°31.663 2°32.34 -999 11 9.4 102380 92
2006-04-27 11:24 51°31.459 2°32.323 -999 1 9.3 102380 92
2006-04-27 11:25 51°31.272 2°32.471 -999 342 9.4 102380 92
2006-04-27 11:26 51°31.1 2°32.687 -999 338 9.4 102370 91
2006-04-27 11:27 51°30.922 2°32.888 -999 339 9.4 102370 91
2006-04-27 11:28 51°30.743 2°33.088 -999 338 9.4 102370 91
2006-04-27 11:29 51°30.564 2°33.288 -999 332 9.4 102380 91
2006-04-27 11:30 51°30.379 2°33.503 -999 335 9.4 102370 91
2006-04-27 11:31 51°30.192 2°33.712 -999 336 9.4 102380 91
2006-04-27 11:32 51°30.009 2°33.93 -999 335 9.4 102380 91
2006-04-27 11:33 51°29.82 2°34.147 -999 330 9.4 102380 91
2006-04-27 11:34 51°29.641 2°34.366 -999 334 9.4 102380 91
2006-04-27 11:35 51°29.466 2°34.588 -999 336 9.4 102370 91
2006-04-27 11:36 51°29.298 2°34.81 -999 338 9.5 102380 91
2006-04-27 11:37 51°29.124 2°35.035 -999 337 9.4 102370 91
2006-04-27 11:38 51°28.954 2°35.262 -999 335 9.5 102370 91
2006-04-27 11:39 51°28.789 2°35.488 -999 335 9.4 102380 91
2006-04-27 11:40 51°28.618 2°35.717 -999 334 9.4 102380 91
2006-04-27 11:41 51°28.441 2°35.949 -999 338 9.5 102370 91
2006-04-27 11:42 51°28.266 2°36.178 -999 330 9.4 102380 91
2006-04-27 11:43 51°28.092 2°36.408 -999 334 9.5 102370 91
2006-04-27 11:44 51°27.92 2°36.633 -999 332 9.5 102370 91
2006-04-27 11:45 51°27.748 2°36.859 -999 331 9.5 102370 91
2006-04-27 11:46 51°27.578 2°37.083 -999 335 9.5 102370 91
2006-04-27 11:47 51°27.405 2°37.3 -999 332 9.5 102370 91
2006-04-27 11:48 51°27.233 2°37.515 -999 329 9.5 102370 90
2006-04-27 11:49 51°27.063 2°37.736 -999 328 9.5 102370 90
2006-04-27 11:50 51°26.89 2°37.956 -999 329 9.5 102370 90
2006-04-27 11:51 51°26.715 2°38.168 -999 334 9.5 102370 90
2006-04-27 11:52 51°26.532 2°38.343 -999 338 9.5 102370 90
2006-04-27 11:53 51°26.341 2°38.528 -999 340 9.5 102360 90
2006-04-27 11:54 51°26.156 2°38.703 -999 338 9.6 102370 90
2006-04-27 11:55 51°25.963 2°38.883 -999 333 9.6 102370 90
2006-04-27 11:56 51°25.775 2°39.061 -999 332 9.7 102360 90
2006-04-27 11:57 51°25.592 2°39.228 -999 331 9.7 102370 89
2006-04-27 11:58 51°25.404 2°39.394 -999 335 9.7 102370 89
2006-04-27 11:59 51°25.215 2°39.551 -999 337 9.7 102370 89
2006-04-27 12:00 51°25.022 2°39.711 -999 333 9.8 102370 89
2006-04-27 12:01 51°24.834 2°39.864 -999 331 9.8 102370 88
2006-04-27 12:02 51°24.639 2°40.017 -999 329 9.8 102370 88
2006-04-27 12:03 51°24.449 2°40.152 -999 323 9.8 102370 88
2006-04-27 12:04 51°24.251 2°40.294 -999 334 9.8 102370 88
2006-04-27 12:05 51°24.057 2°40.413 -999 337 9.9 102370 87
2006-04-27 12:06 51°23.858 2°40.526 -999 339 9.9 102370 87
2006-04-27 12:07 51°23.656 2°40.605 -999 350 9.9 102370 87
2006-04-27 12:08 51°23.451 2°40.654 -999 356 10 102370 87
2006-04-27 12:09 51°23.251 2°40.703 -999 350 10 102370 87
2006-04-27 12:10 51°23.055 2°40.753 -999 352 10.1 102370 86
2006-04-27 12:11 51°22.858 2°40.802 -999 1 10.1 102370 86
2006-04-27 12:12 51°22.66 2°40.854 -999 347 10.1 102370 86
2006-04-27 12:13 51°22.461 2°40.904 -999 349 10.2 102370 86
2006-04-27 12:14 51°22.263 2°40.96 -999 354 10.2 102370 86
2006-04-27 12:15 51°22.062 2°40.994 -999 357 10.2 102380 86
2006-04-27 12:16 51°21.858 2°41.033 -999 359 10.2 102380 86
2006-04-27 12:17 51°21.655 2°41.073 -999 353 10.3 102380 86
2006-04-27 12:18 51°21.459 2°41.193 -999 347 10.2 102380 85
2006-04-27 12:19 51°21.261 2°41.31 -999 338 10.3 102380 86
2006-04-27 12:20 51°21.074 2°41.472 -999 325 10.3 102380 85
2006-04-27 12:21 51°20.91 2°41.69 -999 316 10.3 102380 85
2006-04-27 12:22 51°20.771 2°41.971 -999 325 10.3 102370 85
2006-04-27 12:23 51°20.649 2°42.292 -999 323 10.3 102370 86
2006-04-27 12:24 51°20.52 2°42.606 -999 318 10.2 102380 86
2006-04-27 12:25 51°20.391 2°42.919 -999 321 10.2 102380 86
2006-04-27 12:26 51°20.262 2°43.231 -999 316 10.2 102380 86
2006-04-27 12:27 51°20.149 2°43.557 -999 307 10.1 102380 86
2006-04-27 12:28 51°20.036 2°43.882 -999 312 10.1 102380 86
2006-04-27 12:29 51°19.92 2°44.193 -999 316 10.2 102380 86
2006-04-27 12:30 51°19.819 2°44.515 -999 312 10.2 102380 87
2006-04-27 12:31 51°19.723 2°44.845 -999 44 10.2 102380 87
2006-04-27 12:32 51°19.623 2°45.176 -999 231 10.2 102380 87
2006-04-27 12:33 51°19.525 2°45.518 -999 317 10.2 102380 87
2006-04-27 12:34 51°19.424 2°45.859 -999 315 10.2 102380 88
2006-04-27 12:35 51°19.323 2°46.196 -999 314 10.3 102380 88
2006-04-27 12:36 51°19.223 2°46.533 -999 315 10.3 102380 87
2006-04-27 12:37 51°19.126 2°46.871 -999 314 10.3 102370 87
2006-04-27 12:38 51°19.027 2°47.211 -999 303 10.3 102370 87
2006-04-27 12:39 51°18.929 2°47.55 -999 306 10.3 102370 87
2006-04-27 12:40 51°18.833 2°47.888 -999 311 10.3 102380 87
2006-04-27 12:41 51°18.74 2°48.227 -999 306 10.3 102370 87
2006-04-27 12:42 51°18.635 2°48.551 -999 305 10.3 102370 87
2006-04-27 12:43 51°18.534 2°48.88 -999 309 10.4 102370 87
2006-04-27 12:44 51°18.435 2°49.212 -999 303 10.4 102370 87
2006-04-27 12:45 51°18.333 2°49.542 -999 308 10.4 102370 87
2006-04-27 12:46 51°18.234 2°49.87 -999 303 10.4 102380 87
2006-04-27 12:47 51°18.135 2°50.197 -999 229 10.4 102370 87
2006-04-27 12:48 51°18.037 2°50.526 -999 304 10.5 102370 87
2006-04-27 12:49 51°17.936 2°50.849 -999 229 10.5 102370 87
2006-04-27 12:50 51°17.832 2°51.17 -999 312 10.5 102380 87
2006-04-27 12:51 51°17.715 2°51.477 -999 309 10.5 102370 87
2006-04-27 12:52 51°17.595 2°51.774 -999 290 10.5 102370 86
2006-04-27 12:53 51°17.449 2°52.036 -999 288 10.5 102370 86
2006-04-27 12:54 51°17.279 2°52.246 -999 319 10.6 102370 86
2006-04-27 12:55 51°17.092 2°52.408 -999 316 10.7 102370 86
2006-04-27 12:56 51°16.899 2°52.564 -999 336 10.7 102370 86
2006-04-27 12:57 51°16.711 2°52.732 -999 311 10.9 102370 85
2006-04-27 12:58 51°16.521 2°52.897 -999 247 11 102370 85
2006-04-27 12:59 51°16.332 2°53.07 -999 213 11.1 102370 85
2006-04-27 13:00 51°16.139 2°53.218 -999 134 11.1 102370 83
2006-04-27 13:01 51°15.949 2°53.358 -999 157 11.1 102370 82
2006-04-27 13:02 51°15.753 2°53.514 -999 217 11.1 102370 82
2006-04-27 13:03 51°15.562 2°53.67 -999 166 11.1 102370 83
2006-04-27 13:04 51°15.373 2°53.84 -999 302 11.2 102370 83
2006-04-27 13:05 51°15.184 2°54.002 -999 229 11.3 102360 83
2006-04-27 13:06 51°14.997 2°54.174 -999 288 11.3 102360 82
2006-04-27 13:07 51°14.864 2°54.339 -999 212 11.3 102360 81
2006-04-27 13:08 51°14.728 2°54.512 -999 248 11.2 102360 81
2006-04-27 13:09 51°14.577 2°54.707 -999 247 11.1 102360 82
2006-04-27 13:10 51°14.429 2°54.927 -999 263 11 102370 82
2006-04-27 13:11 51°14.325 2°55.141 -999 243 10.9 102370 82
2006-04-27 13:12 51°14.258 2°55.277 -999 244 10.8 102360 82
2006-04-27 13:13 51°14.166 2°55.382 -999 200 10.6 102370 83
2006-04-27 13:14 51°14.065 2°55.46 -999 174 10.6 102370 84
2006-04-27 13:15 51°13.961 2°55.535 -999 187 10.7 102370 85
2006-04-27 13:16 51°13.859 2°55.608 -999 198 10.8 102360 85
2006-04-27 13:17 51°13.776 2°55.687 -999 214 10.8 102360 83
2006-04-27 13:18 51°13.713 2°55.789 -999 249 10.7 102370 83
2006-04-27 13:19 51°13.664 2°55.897 -999 231 10.7 102370 85
2006-04-27 13:20 51°13.625 2°55.993 -999 225 10.8 102370 85
2006-04-27 13:21 51°13.605 2°56.07 -999 264 10.7 102370 83
2006-04-27 13:22 51°13.6 2°56.093 -999 240 10.9 102360 84
2006-04-27 13:23 51°13.6 2°56.1 -999 246 11.1 102360 83